COOK1: Arkansas River Nr Coolidge, KS

                                SHEF ID:       COOK1     ARKANSAS R NR COOLIDGE, KS
STATION TYPE:
Regulating: Stage = 8.00, Flow = 2050

PRECIP STAGE STAGE(2) RIV-FLOW WTR-TEMP CONDUCT BAT-LOAD
in ft ft cfs F umho/cm volt
Ccp-Rev Ccp-Rev Ccp-Rev Ccp-Rev Ccp-Rev Ccp-Rev Ccp-Rev
(America/Chicago)
07/03 00:00 0.00 2.34 2.48 41 75.83 6498 12.95
07/03 01:00 0.00 2.34 2.48 41 74.86 6527 12.95
07/03 02:00 0.00 2.33 2.46 41 74.25 6561 12.89
07/03 03:00 0.00 2.31 2.46 39 73.51 6590 12.89
07/03 04:00 0.00 2.31 2.46 39 72.93 6601 12.89
07/03 05:00 0.02 2.31 2.46 39 72.37 6588 12.89
07/03 06:00 0.03 2.30 2.45 39 71.85 6552 12.89
07/03 07:00 0.00 2.29 2.44 38 70.92 6590 12.83
07/03 08:00 0.00 2.28 2.44 37 70.29 6624 12.83
07/03 09:00 0.00 2.30 2.47 39 70.00 6674 12.89
07/03 10:00 0.00 2.29 2.45 38 69.91 6703 12.89
07/03 11:00 0.00 2.30 2.46 39 72.23 6725 13.53
07/03 12:00 0.00 2.32 2.47 40 75.38 6745 13.65
07/03 13:00 0.00 2.33 2.46 41 78.42 6716 13.77
07/03 14:00 0.00 2.34 2.49 41 80.02 6622 13.77
07/03 15:00 0.00 2.35 2.49 42 80.26 6552 13.53
07/03 16:00 0.00 2.37 2.50 44 82.65 6521 13.36
07/03 17:00 0.00 2.35 2.50 42 83.59 6484 13.48
07/03 18:00 0.00 2.38 2.52 44 83.25 6410 13.24
07/03 19:00 0.00 2.42 2.57 47 81.39 6352 13.18
07/03 20:00 0.13 2.44 2.58 49 78.58 6266 13.07
07/03 21:00 0.00 2.41 2.56 47 77.11 6368 13.12
07/03 22:00 0.00 2.38 2.53 44 75.04 6390 13.00
07/03 23:00 ---- ---- ---- ---- ---- ---- ----
Data processed at Thu 04Jul2024 04:30 GMT

Parsing this webpage?

Checkout our new Data API! CWMSDataAPI (CDA)

Timeseries IDs (TSIDs)

TSIDs used from left to right in the data table
COOL.Precip-Inc.Total.1Hour.1Hour.Ccp-Rev
COOL.Stage.Inst.1Hour.0.Ccp-Rev
COOL.Stage-Alt.Inst.1Hour.0.Ccp-Rev
COOL.Flow.Inst.1Hour.0.Ccp-Rev
COOL.Temp-Water.Inst.1Hour.0.Ccp-Rev
COOL.Cond.Inst.1Hour.0.Ccp-Rev
COOL.Volt-Battery Load.Inst.1Hour.0.Ccp-Rev

                            

All information presented herein is the property of the government of the United States of America and may be revised or deleted at any time without prior notice. Dissemination of this information without the expressed written consent of the Public Affairs Office, Tulsa District U.S. Army Corps of Engineers is strictly prohibited. These data are gathered electronically and, as presented, have NOT undergone any form of quality control. These data are NOT guaranteed to be valid or correct.